Airfield :







YOU CAN JOIN US ON...

 
LOGIN :

Register | Disclaimer

   EN    FR    IT 

 









Legend :    VFR   Marginal VFR   IFR   Intensive IFR   Very Intensive IFR
Visi :
Ceiling :
>= 8 km
>= 3000ft
5 to 8 km
1000 to 3000 ft
1500m to 5 km
500 to 1000 ft
800 to 1500m
200 to 500 ft
< 800m
< 200 ft
Symbols :   Thunderstorms  Fog  Heavy snow  Heavy precipitations  Wind > 20 kt






- Airport Elevation : 335 ft
- IATA code : BTV


KBTV - Burlington International

CURRENT METAR :
  • 280554Z AUTO 35006KT 10SM CLR 06/03 A2997 RMK AO2 SLP150 T00560028 10094 20056 53002

EXPIRED METARs :
  • 280454Z AUTO 34006KT 10SM CLR 06/03 A2996 RMK AO2 SLP148 T00560033 401220056
  • 280354Z 02004KT 10SM CLR 06/03 A2996 RMK AO2 SLP149 /LAST/ T00610033

TAF KBTV
Valid from the 28 at 06:00 until the 29 at 06:00 UTC


280525Z 2806/2906 35006KT P6SM BKN250
FM281400 36008KT P6SM FEW250
FM282200 01003KT P6SM SKC
KZBW FIR / North America



MET'MAP, your aeronautical weather chart ! - Copyright ORBIFLY December 2007 - Disclaimer

ORBIFLY MET'MAP TEAM :

Programming & Development : Alexandra Zaïnal
Concept & original design : Baudouin d'Aumeries
Assistance for programming : Marc-Olivier Méhu
Technical & hardware support : Manuel Goepfert

Contact : metmap@orbifly.com




SOURCES & CREDITS :

   NOAA